Time;durP1;ratioP1;P1;durP2;ratioP2;P2;SDS_P1;SDS_P2;PMS_P1;PMS_P2;Temp;Humidity;BMP_temperature;BMP_pressure;BME280_temperature;BME280_humidity;BME280_pressure;Samples;Min_cycle;Max_cycle;Signal;HPM_P1;HPM_P2
2021/08/16 00:00:36;;;;;;;25.82;14.90;;;;;;;16.72;91.07;99337.56;1684086;85;21018;-72
2021/08/16 00:03:08;;;;;;;;;;;;;;;16.72;90.87;99339.52;1667210;86;21446;-72
2021/08/16 00:05:40;;;;;;;28.05;15.30;;;;;;;16.69;90.97;99338.28;1683617;85;20160;-72
2021/08/16 00:08:16;;;;;;;26.87;15.63;;;;;;;16.67;91.09;99342.58;1645762;86;20987;-72
2021/08/16 00:10:47;;;;;;;36.35;15.05;;;;;;;16.64;91.39;99339.95;1637626;87;20922;-72
2021/08/16 00:13:20;;;;;;;25.45;14.73;;;;;;;16.63;91.46;99333.34;1659187;85;20956;-72
2021/08/16 00:15:57;;;;;;;26.25;14.83;;;;;;;16.62;91.30;99335.89;1683549;85;21482;-72
2021/08/16 00:18:27;;;;;;;35.58;16.67;;;;;;;16.59;91.46;99341.58;1683907;85;20944;-73
2021/08/16 00:21:01;;;;;;;30.68;15.20;;;;;;;16.60;91.63;99342.38;1684163;85;20868;-73
2021/08/16 00:23:31;;;;;;;;;;;;;;;16.58;91.55;99342.73;1666905;86;21597;-72
2021/08/16 00:26:06;;;;;;;26.73;14.65;;;;;;;16.57;91.55;99344.48;1684112;85;20092;-72
2021/08/16 00:28:42;;;;;;;33.33;15.93;;;;;;;16.54;91.58;99341.85;1664822;86;21151;-71
2021/08/16 00:31:11;;;;;;;30.08;15.43;;;;;;;16.54;91.64;99342.44;1681660;85;21518;-72
2021/08/16 00:33:41;;;;;;;34.80;16.82;;;;;;;16.53;91.61;99333.90;1645527;86;21105;-74
2021/08/16 00:36:14;;;;;;;33.35;16.48;;;;;;;16.49;91.53;99329.08;1682144;85;21054;-73
2021/08/16 00:38:45;;;;;;;32.53;15.88;;;;;;;16.49;91.81;99333.23;1664844;86;21001;-73
2021/08/16 00:41:18;;;;;;;27.67;15.30;;;;;;;16.49;91.90;99336.59;1684331;85;20941;-72
2021/08/16 00:43:51;;;;;;;24.80;15.58;;;;;;;16.47;91.90;99331.98;1664808;86;21089;-72
2021/08/16 00:46:25;;;;;;;30.88;15.63;;;;;;;16.46;91.96;99333.95;1645265;86;21561;-72
2021/08/16 00:48:54;;;;;;;32.42;15.65;;;;;;;16.45;91.91;99330.96;1664533;86;20891;-72
2021/08/16 00:51:26;;;;;;;30.48;15.90;;;;;;;16.43;91.90;99329.13;1684504;85;21002;-73
2021/08/16 00:54:03;;;;;;;24.77;14.70;;;;;;;16.40;91.96;99326.28;1645745;86;20911;-71
2021/08/16 00:56:35;;;;;;;27.37;14.68;;;;;;;16.37;91.96;99325.03;1683958;85;21493;-72
2021/08/16 00:59:09;;;;;;;27.73;15.85;;;;;;;16.34;91.76;99322.97;1645530;86;20915;-72
2021/08/16 01:01:41;;;;;;;28.73;15.32;;;;;;;16.32;91.88;99319.77;1683960;85;20982;-72
2021/08/16 01:04:09;;;;;;;34.43;16.27;;;;;;;16.30;92.04;99316.55;1665161;86;21002;-72
2021/08/16 01:06:43;;;;;;;31.90;16.75;;;;;;;16.27;92.14;99315.87;1637111;85;21086;-72
2021/08/16 01:09:20;;;;;;;29.30;16.97;;;;;;;16.25;92.19;99316.82;1684006;85;20907;-72
2021/08/16 01:11:50;;;;;;;32.88;16.12;;;;;;;16.25;92.36;99321.55;1664774;86;20911;-72
2021/08/16 01:14:21;;;;;;;29.02;15.68;;;;;;;16.23;92.55;99322.50;1684095;85;20959;-72
2021/08/16 01:16:54;;;;;;;23.70;14.83;;;;;;;16.23;92.57;99311.42;1664829;86;21020;-72
2021/08/16 01:19:32;;;;;;;28.05;15.25;;;;;;;16.21;92.65;99314.55;1658879;85;20923;-72
2021/08/16 01:22:07;;;;;;;23.35;15.45;;;;;;;16.19;92.73;99316.28;1645644;86;21003;-72
2021/08/16 01:24:37;;;;;;;25.55;15.75;;;;;;;16.16;92.90;99310.69;1684134;85;20904;-72
2021/08/16 01:27:12;;;;;;;26.23;14.07;;;;;;;16.14;93.06;99304.12;1645412;86;21009;-70
2021/08/16 01:29:47;;;;;;;34.40;15.90;;;;;;;16.10;93.00;99297.70;1684371;85;21020;-69
2021/08/16 01:32:20;;;;;;;35.23;14.73;;;;;;;16.08;93.10;99309.71;1665157;86;21125;-70
2021/08/16 01:34:52;;;;;;;31.23;14.75;;;;;;;16.07;93.28;99301.77;1681252;84;21002;-71
2021/08/16 01:37:18;;;;;;;28.12;15.88;;;;;;;16.06;93.27;99305.69;1664504;85;20926;-70
2021/08/16 01:39:48;;;;;;;32.10;15.18;;;;;;;16.04;93.32;99300.52;1684190;85;20947;-70
2021/08/16 01:42:26;;;;;;;;;;;;;;;16.04;93.54;99302.48;1667355;86;20932;-70
2021/08/16 01:44:54;;;;;;;36.23;20.05;;;;;;;16.04;93.49;99298.33;1664797;84;21125;-71
2021/08/16 01:47:27;;;;;;;;;;;;;;;16.01;93.35;99297.08;1686479;85;20975;-72
2021/08/16 01:49:56;;;;;;;43.37;22.77;;;;;;;15.99;93.34;99295.25;1632361;87;20118;-71
2021/08/16 01:52:22;;;;;;;41.50;21.57;;;;;;;15.94;93.27;99298.28;1631766;87;21003;-71
2021/08/16 01:54:49;;;;;;;39.58;22.67;;;;;;;15.91;93.43;99305.11;1632215;88;20967;-72
2021/08/16 01:57:16;;;;;;;42.50;22.82;;;;;;;15.87;93.59;99300.87;1632231;88;21148;-72
2021/08/16 01:59:43;;;;;;;44.20;24.12;;;;;;;15.85;93.71;99307.34;1664662;86;20903;-75
2021/08/16 02:02:09;;;;;;;41.48;23.55;;;;;;;15.84;93.92;99305.16;1684028;85;21396;-75
2021/08/16 02:04:36;;;;;;;40.15;24.07;;;;;;;15.82;93.88;99308.86;1664706;85;20971;-76
2021/08/16 02:07:03;;;;;;;39.80;22.10;;;;;;;15.80;93.81;99308.41;1684361;85;20995;-74
2021/08/16 02:09:29;;;;;;;39.55;23.07;;;;;;;15.79;93.73;99308.77;1664709;86;21121;-73
2021/08/16 02:11:57;;;;;;;40.48;23.12;;;;;;;15.76;93.82;99308.89;1683972;85;20892;-73
2021/08/16 02:14:24;;;;;;;49.58;23.35;;;;;;;15.74;93.75;99307.06;1664769;86;20914;-74
2021/08/16 02:16:51;;;;;;;45.30;24.00;;;;;;;15.73;93.72;99307.42;1684310;85;20959;-74
2021/08/16 02:19:18;;;;;;;34.58;21.42;;;;;;;15.72;93.79;99307.19;1664701;86;20977;-73
2021/08/16 02:21:44;;;;;;;42.75;21.35;;;;;;;15.70;93.82;99314.47;1684085;85;21086;-74
2021/08/16 02:24:10;;;;;;;44.93;21.95;;;;;;;15.68;93.75;99320.94;1664888;86;21002;-73
2021/08/16 02:26:38;;;;;;;43.52;20.35;;;;;;;15.63;93.87;99323.16;1684040;85;21034;-73
2021/08/16 02:29:05;;;;;;;36.88;20.75;;;;;;;15.61;94.00;99319.94;1664754;85;21029;-72
2021/08/16 02:31:33;;;;;;;31.93;19.32;;;;;;;15.57;94.14;99321.84;1684147;85;20947;-73
2021/08/16 02:33:59;;;;;;;36.48;20.25;;;;;;;15.53;94.29;99329.43;1664929;86;21106;-70
2021/08/16 02:36:26;;;;;;;30.72;19.37;;;;;;;15.51;94.59;99328.98;1683955;85;20895;-70
2021/08/16 02:38:53;;;;;;;37.10;19.15;;;;;;;15.51;94.82;99324.02;1669787;86;20902;-70
2021/08/16 02:41:21;;;;;;;35.25;19.52;;;;;;;15.52;94.84;99325.63;1658528;85;21004;-70
2021/08/16 02:43:48;;;;;;;37.48;19.48;;;;;;;15.51;94.81;99324.83;1684086;85;21049;-70
2021/08/16 02:46:14;;;;;;;36.88;18.67;;;;;;;15.50;94.86;99324.60;1684057;85;21144;-71
2021/08/16 02:48:41;;;;;;;35.73;18.20;;;;;;;15.49;94.96;99317.46;1684023;85;20990;-72
2021/08/16 02:51:08;;;;;;;33.35;18.42;;;;;;;15.50;95.01;99321.03;1684070;85;21023;-70
2021/08/16 02:53:35;;;;;;;31.60;18.07;;;;;;;15.50;95.11;99314.12;1684000;85;20995;-71
2021/08/16 02:56:01;;;;;;;33.38;18.00;;;;;;;15.49;95.03;99320.23;1684054;85;21006;-71
2021/08/16 02:58:28;;;;;;;38.05;18.05;;;;;;;15.47;95.07;99321.73;1669883;86;21168;-72
2021/08/16 03:00:54;;;;;;;37.03;18.42;;;;;;;15.47;95.28;99329.45;1683981;85;20943;-72
2021/08/16 03:03:21;;;;;;;30.05;18.20;;;;;;;15.48;95.52;99336.60;1670121;86;20910;-72
2021/08/16 03:05:47;;;;;;;42.13;19.87;;;;;;;15.50;95.62;99339.02;1684000;85;20916;-71
2021/08/16 03:08:14;;;;;;;43.73;20.02;;;;;;;15.51;95.61;99340.63;1669996;86;21450;-71
2021/08/16 03:10:42;;;;;;;40.65;19.17;;;;;;;15.50;95.77;99337.63;1684013;85;21474;-71
2021/08/16 03:13:10;;;;;;;36.85;18.32;;;;;;;15.48;95.86;99326.92;1669751;86;21506;-71
2021/08/16 03:15:37;;;;;;;35.30;17.15;;;;;;;15.46;95.99;99329.23;1684141;85;20927;-72
2021/08/16 03:18:06;;;;;;;34.53;16.35;;;;;;;15.44;96.58;99337.66;1677828;84;21476;-72
2021/08/16 03:20:33;;;;;;;40.50;18.15;;;;;;;15.44;96.97;99334.31;1656983;86;21487;-72
2021/08/16 03:23:00;;;;;;;32.42;15.40;;;;;;;15.45;97.05;99331.77;1642686;87;21107;-72
2021/08/16 03:25:28;;;;;;;23.67;14.80;;;;;;;15.49;97.25;99336.02;1656187;86;20982;-72
2021/08/16 03:27:54;;;;;;;30.40;16.25;;;;;;;15.50;97.31;99335.67;1642850;87;20950;-71
2021/08/16 03:30:21;;;;;;;28.02;15.98;;;;;;;15.50;97.15;99326.56;1656384;86;20963;-71
2021/08/16 03:32:48;;;;;;;35.63;15.50;;;;;;;15.53;97.11;99331.39;1642598;87;20974;-70
2021/08/16 03:35:15;;;;;;;33.45;16.40;;;;;;;15.57;97.30;99332.33;1653834;86;21432;-71
2021/08/16 03:37:43;;;;;;;30.17;16.55;;;;;;;15.65;97.75;99338.25;1632443;87;20959;-71
2021/08/16 03:40:13;;;;;;;28.50;15.03;;;;;;;15.77;98.21;99336.80;1647522;86;21526;-69
2021/08/16 03:42:40;;;;;;;28.10;15.30;;;;;;;15.84;97.81;99336.98;1647478;86;21007;-69
2021/08/16 03:45:13;;;;;;;28.62;15.45;;;;;;;15.90;97.93;99336.14;1647536;87;20907;-70
2021/08/16 03:47:39;;;;;;;29.67;16.05;;;;;;;15.97;98.26;99325.83;1647751;86;21082;-74
2021/08/16 03:50:10;;;;;;;33.28;16.15;;;;;;;16.02;98.29;99324.98;1647285;86;21616;-73
2021/08/16 03:52:36;;;;;;;33.50;15.85;;;;;;;16.10;98.47;99324.58;1647735;86;20920;-73
2021/08/16 03:55:04;;;;;;;31.20;16.17;;;;;;;16.18;98.66;99318.03;1663785;85;21554;-72
2021/08/16 03:57:32;;;;;;;26.55;15.55;;;;;;;16.27;98.70;99315.87;1674846;85;20980;-71
2021/08/16 03:59:59;;;;;;;37.42;16.50;;;;;;;16.35;98.83;99314.09;1674576;85;21064;-72
2021/08/16 04:02:26;;;;;;;32.55;16.75;;;;;;;16.46;99.07;99319.30;1674630;85;20904;-72
2021/08/16 04:04:54;;;;;;;35.35;16.02;;;;;;;16.59;99.23;99328.30;1674696;85;20959;-71
2021/08/16 04:07:22;;;;;;;28.62;15.85;;;;;;;16.69;99.20;99324.42;1674813;85;20999;-72
2021/08/16 04:09:50;;;;;;;32.58;16.77;;;;;;;16.80;99.23;99315.73;1674802;85;20923;-72
2021/08/16 04:12:18;;;;;;;36.45;16.25;;;;;;;16.92;99.15;99315.37;1674803;85;20991;-71
2021/08/16 04:14:48;;;;;;;32.98;16.85;;;;;;;17.03;98.99;99321.95;1674725;85;20948;-72
2021/08/16 04:17:14;;;;;;;28.47;16.07;;;;;;;17.15;98.99;99314.30;1674800;85;20911;-69
2021/08/16 04:19:41;;;;;;;31.25;16.17;;;;;;;17.29;98.79;99313.79;1674659;85;22005;-71
2021/08/16 04:22:08;;;;;;;29.55;16.05;;;;;;;17.43;98.57;99311.85;1674908;85;21459;-73
2021/08/16 04:24:34;;;;;;;24.95;15.03;;;;;;;17.56;98.05;99309.72;1675007;85;21116;-72
2021/08/16 04:27:03;;;;;;;38.10;16.30;;;;;;;17.67;97.68;99314.91;1674702;85;21525;-72
2021/08/16 04:29:30;;;;;;;27.77;15.72;;;;;;;17.81;97.45;99323.51;1674797;85;20992;-72
2021/08/16 04:31:57;;;;;;;29.85;17.60;;;;;;;17.95;96.83;99324.31;1675088;85;20919;-71
2021/08/16 04:34:24;;;;;;;27.85;15.55;;;;;;;18.06;96.22;99320.55;1674796;85;20916;-72
2021/08/16 04:36:50;;;;;;;32.35;16.35;;;;;;;18.19;96.19;99320.36;1682499;84;21099;-72
2021/08/16 04:39:18;;;;;;;38.75;16.42;;;;;;;18.30;96.04;99319.36;1684294;85;20989;-72
2021/08/16 04:41:45;;;;;;;31.05;16.75;;;;;;;18.39;95.09;99314.34;1684387;85;20930;-71
2021/08/16 04:44:12;;;;;;;30.85;17.32;;;;;;;18.49;94.85;99315.07;1684389;85;20891;-71
2021/08/16 04:46:38;;;;;;;31.87;16.05;;;;;;;18.61;94.57;99317.45;1668819;85;21081;-71
2021/08/16 04:49:05;;;;;;;28.90;15.08;;;;;;;18.72;93.97;99313.66;1684283;85;21098;-71
2021/08/16 04:51:32;;;;;;;36.00;16.30;;;;;;;18.84;93.30;99315.41;1684377;85;21003;-71
2021/08/16 04:53:59;;;;;;;29.30;14.95;;;;;;;18.96;93.23;99313.78;1684076;85;20982;-72
2021/08/16 04:56:26;;;;;;;27.00;15.32;;;;;;;19.10;92.01;99318.70;1684051;85;21018;-72
2021/08/16 04:58:57;;;;;;;28.47;15.50;;;;;;;19.25;90.85;99315.52;1684087;84;20927;-70
2021/08/16 05:01:24;;;;;;;29.67;15.30;;;;;;;19.42;90.40;99310.75;1684415;85;21179;-71
2021/08/16 05:03:51;;;;;;;25.92;14.40;;;;;;;19.58;89.54;99307.77;1684429;85;21533;-72
2021/08/16 05:06:18;;;;;;;29.42;14.15;;;;;;;19.74;86.98;99307.72;1684309;85;21628;-72
2021/08/16 05:08:46;;;;;;;28.27;12.75;;;;;;;19.90;85.50;99311.66;1684391;85;20898;-70
2021/08/16 05:11:14;;;;;;;22.85;12.73;;;;;;;20.07;83.27;99321.36;1684482;85;20883;-71
2021/08/16 05:13:41;;;;;;;28.30;12.85;;;;;;;20.22;82.11;99319.50;1684269;85;21096;-71
2021/08/16 05:16:08;;;;;;;33.85;12.90;;;;;;;20.38;80.67;99321.42;1684581;85;20907;-72
2021/08/16 05:18:34;;;;;;;25.02;12.82;;;;;;;20.53;79.26;99323.72;1684393;85;20928;-72
2021/08/16 05:21:02;;;;;;;26.48;12.18;;;;;;;20.68;78.40;99331.00;1684369;85;20986;-72
2021/08/16 05:23:30;;;;;;;24.15;12.05;;;;;;;20.81;77.62;99326.67;1684366;85;21019;-72
2021/08/16 05:25:58;;;;;;;25.97;12.13;;;;;;;20.92;77.14;99321.95;1684325;85;21024;-71
2021/08/16 05:28:25;;;;;;;24.90;11.22;;;;;;;21.03;76.73;99323.41;1684320;85;20962;-72
2021/08/16 05:30:52;;;;;;;25.52;11.95;;;;;;;21.14;76.35;99331.84;1684613;85;21501;-72
2021/08/16 05:33:19;;;;;;;21.02;11.97;;;;;;;21.24;75.86;99333.31;1684353;85;21520;-71
2021/08/16 05:35:45;;;;;;;18.77;11.53;;;;;;;21.35;75.88;99327.77;1684223;85;20974;-72
2021/08/16 05:38:13;;;;;;;21.48;10.88;;;;;;;21.48;75.32;99330.98;1693587;84;21100;-72
2021/08/16 05:40:39;;;;;;;24.23;11.28;;;;;;;21.58;74.13;99319.84;1668820;85;21003;-72
2021/08/16 05:43:06;;;;;;;21.35;10.70;;;;;;;21.69;73.36;99305.31;1693579;84;20931;-72
2021/08/16 05:45:33;;;;;;;16.50;10.93;;;;;;;21.80;74.03;99294.16;1693695;84;20884;-72
2021/08/16 05:48:00;;;;;;;20.77;11.68;;;;;;;21.93;73.45;99288.98;1668910;85;20966;-72
2021/08/16 05:50:27;;;;;;;22.15;11.00;;;;;;;22.06;72.37;99294.38;1693685;84;21142;-72
2021/08/16 05:52:53;;;;;;;28.25;12.60;;;;;;;22.17;71.67;99298.58;1693708;84;20913;-71
2021/08/16 05:55:20;;;;;;;23.67;11.88;;;;;;;;;;1652939;85;21017;-73
2021/08/16 05:57:47;;;;;;;31.17;14.07;;;;;;;22.44;70.38;99311.55;1643396;86;20915;-72
2021/08/16 06:00:17;;;;;;;22.65;12.05;;;;;;;22.53;68.41;99309.92;1693957;84;20926;-69
2021/08/16 06:02:46;;;;;;;19.50;11.40;;;;;;;22.60;68.87;99314.70;1691042;84;21437;-70
2021/08/16 06:05:14;;;;;;;20.10;10.90;;;;;;;22.70;68.04;99317.48;1690020;84;20938;-72
2021/08/16 06:07:40;;;;;;;21.85;10.70;;;;;;;22.80;67.85;99310.30;1688856;84;20897;-69
2021/08/16 06:10:09;;;;;;;24.85;12.47;;;;;;;22.88;67.70;99300.69;1653944;86;21038;-73
2021/08/16 06:12:37;;;;;;;24.92;13.55;;;;;;;23.02;67.53;99306.84;1666887;85;20944;-71
2021/08/16 06:15:08;;;;;;;24.95;13.00;;;;;;;23.18;68.23;99307.75;1681560;85;20888;-70
2021/08/16 06:17:37;;;;;;;22.55;11.68;;;;;;;23.34;67.14;99308.09;1681916;85;20924;-71
2021/08/16 06:20:06;;;;;;;26.65;11.63;;;;;;;23.50;66.74;99307.01;1681584;85;20948;-71
2021/08/16 06:22:34;;;;;;;30.88;11.43;;;;;;;23.64;64.89;99301.96;1681759;85;21046;-78
2021/08/16 06:25:01;;;;;;;33.45;11.38;;;;;;;23.80;64.65;99298.63;1680477;85;20935;-69
2021/08/16 06:27:29;;;;;;;33.53;11.90;;;;;;;23.95;63.80;99307.14;1655971;85;21073;-72
2021/08/16 06:29:56;;;;;;;24.77;11.33;;;;;;;24.10;62.50;99314.23;1652289;86;20897;-68
2021/08/16 06:32:22;;;;;;;20.95;11.30;;;;;;;24.27;63.52;99324.52;1664252;86;20916;-71
2021/08/16 06:34:50;;;;;;;21.02;9.95;;;;;;;24.45;62.20;99325.78;1663703;86;21554;-69
2021/08/16 06:37:17;;;;;;;17.55;9.73;;;;;;;24.62;61.35;99329.63;1652891;86;20997;-70
2021/08/16 06:39:44;;;;;;;22.32;9.20;;;;;;;24.77;61.33;99327.48;1648663;87;21164;-71
2021/08/16 06:42:12;;;;;;;19.02;9.08;;;;;;;24.93;60.20;99322.07;1632699;87;21486;-70
2021/08/16 06:44:39;;;;;;;14.28;8.70;;;;;;;25.08;59.51;99321.34;1684006;84;21528;-70
2021/08/16 06:47:05;;;;;;;23.15;9.60;;;;;;;25.23;58.08;99326.98;1660245;86;20986;-70
2021/08/16 06:49:33;;;;;;;20.43;9.08;;;;;;;25.38;57.89;99325.59;1684208;84;21061;-70
2021/08/16 06:52:01;;;;;;;16.02;9.10;;;;;;;25.50;58.86;99322.19;1684072;85;21136;-70
2021/08/16 06:54:28;;;;;;;18.90;9.20;;;;;;;25.64;58.58;99329.66;1683768;83;21080;-70
2021/08/16 06:56:55;;;;;;;27.73;10.20;;;;;;;25.76;57.85;99328.30;1660196;86;20915;-70
2021/08/16 06:59:22;;;;;;;18.40;9.15;;;;;;;25.87;57.50;99324.72;1684062;84;21517;-74
2021/08/16 07:01:49;;;;;;;15.88;8.35;;;;;;;25.99;58.12;99322.73;1660313;85;21565;-74
2021/08/16 07:04:17;;;;;;;20.45;9.53;;;;;;;26.14;57.54;99314.84;1684604;84;21173;-70
2021/08/16 07:06:46;;;;;;;16.50;8.68;;;;;;;26.30;56.96;99307.95;1660383;85;21021;-69
2021/08/16 07:09:13;;;;;;;19.25;8.13;;;;;;;26.44;55.88;99313.36;1684096;84;20930;-70
2021/08/16 07:11:40;;;;;;;19.02;8.83;;;;;;;26.57;54.69;99317.13;1684165;85;20903;-70
2021/08/16 07:14:07;;;;;;;13.18;7.95;;;;;;;26.65;53.73;99316.39;1684178;85;20967;-70
2021/08/16 07:16:34;;;;;;;12.10;7.45;;;;;;;26.70;53.11;99310.88;1684094;85;21201;-71
2021/08/16 07:19:01;;;;;;;11.38;6.50;;;;;;;26.78;53.54;99320.78;1659285;84;21010;-73
2021/08/16 07:21:29;;;;;;;13.15;7.12;;;;;;;26.87;51.44;99315.37;1684273;84;21663;-71
2021/08/16 07:23:57;;;;;;;14.25;6.62;;;;;;;26.97;52.03;99315.82;1660300;86;20975;-69
2021/08/16 07:26:24;;;;;;;12.20;6.47;;;;;;;27.10;51.67;99327.24;1684527;84;20983;-69
2021/08/16 07:28:51;;;;;;;8.63;5.58;;;;;;;27.24;50.36;99326.31;1663745;85;21028;-69
2021/08/16 07:31:18;;;;;;;19.77;7.25;;;;;;;27.39;47.92;99328.23;1689124;84;21615;-70
2021/08/16 07:33:45;;;;;;;12.40;5.95;;;;;;;27.47;48.80;99324.03;1691673;84;21004;-68
2021/08/16 07:36:11;;;;;;;12.63;6.60;;;;;;;27.54;47.58;99326.70;1691305;83;20915;-69
2021/08/16 07:38:38;;;;;;;12.37;6.42;;;;;;;27.64;48.19;99330.55;1691538;83;20891;-71
2021/08/16 07:41:04;;;;;;;12.95;7.10;;;;;;;27.72;46.63;99326.95;1690478;83;21142;-71
2021/08/16 07:43:31;;;;;;;17.98;8.25;;;;;;;27.74;46.96;99328.69;1690938;83;20947;-70
2021/08/16 07:45:58;;;;;;;13.95;6.95;;;;;;;27.80;47.10;99326.94;1690722;83;20943;-73
2021/08/16 07:48:26;;;;;;;13.03;7.25;;;;;;;27.89;45.69;99321.50;1691045;83;20904;-83
2021/08/16 07:50:54;;;;;;;11.83;6.12;;;;;;;27.95;45.95;99329.62;1690929;83;20943;-72
2021/08/16 07:53:20;;;;;;;11.50;6.47;;;;;;;28.02;44.41;99325.84;1690964;83;21069;-71
2021/08/16 07:55:47;;;;;;;12.65;6.00;;;;;;;28.16;44.18;99331.14;1689094;84;21639;-71
2021/08/16 07:58:13;;;;;;;14.28;6.20;;;;;;;28.43;43.63;99335.12;1655752;86;21572;-69
2021/08/16 08:00:40;;;;;;;10.75;6.08;;;;;;;28.70;41.93;99334.84;1656478;86;21027;-71
2021/08/16 08:03:06;;;;;;;9.43;6.47;;;;;;;28.91;42.05;99332.85;1653763;86;20919;-70
2021/08/16 08:05:35;;;;;;;19.60;7.22;;;;;;;29.15;41.74;99327.75;1684537;84;20959;-70
2021/08/16 08:08:03;;;;;;;15.28;6.15;;;;;;;29.34;40.90;99328.21;1684183;85;20915;-71
2021/08/16 08:10:30;;;;;;;13.90;7.25;;;;;;;29.47;41.28;99334.70;1660835;86;20994;-73
2021/08/16 08:12:57;;;;;;;12.75;6.08;;;;;;;29.63;41.62;99329.58;1684484;84;20974;-71
2021/08/16 08:15:23;;;;;;;14.40;6.85;;;;;;;29.80;40.88;99323.20;1660053;86;20991;-69
2021/08/16 08:17:50;;;;;;;12.40;6.83;;;;;;;29.94;40.32;99320.55;1684255;84;21143;-69
2021/08/16 08:20:17;;;;;;;23.38;6.90;;;;;;;30.11;40.15;99312.91;1660426;85;21034;-69
2021/08/16 08:22:44;;;;;;;14.98;6.60;;;;;;;30.32;39.83;99313.46;1684520;84;20960;-71
2021/08/16 08:25:12;;;;;;;11.55;5.70;;;;;;;30.48;39.26;99313.31;1683671;85;21043;-71
2021/08/16 08:27:40;;;;;;;10.88;5.62;;;;;;;30.65;39.15;99313.95;1684134;85;21478;-71
2021/08/16 08:30:08;;;;;;;10.53;6.55;;;;;;;30.85;38.86;99319.50;1684187;85;21033;-71
2021/08/16 08:32:52;;;;;;;8.90;5.70;;;;;;;30.93;38.83;99321.45;1683910;85;20907;-68
2021/08/16 08:35:19;;;;;;;10.72;5.17;;;;;;;30.99;36.66;99312.53;1684082;85;21042;-72
2021/08/16 08:37:47;;;;;;;9.53;5.72;;;;;;;30.93;37.07;99317.83;1659782;83;20991;-70
2021/08/16 08:40:14;;;;;;;11.18;5.83;;;;;;;30.77;37.92;99321.00;1682559;84;21105;-74
2021/08/16 08:42:45;;;;;;;11.73;5.55;;;;;;;30.78;37.91;99322.59;1683368;85;22325;-71
2021/08/16 08:45:12;;;;;;;14.43;6.10;;;;;;;30.82;37.77;99319.62;1665832;85;21065;-69
2021/08/16 08:47:39;;;;;;;9.55;5.40;;;;;;;30.87;38.34;99317.00;1667197;85;21033;-70
2021/08/16 08:50:07;;;;;;;8.65;5.62;;;;;;;31.00;37.06;99312.70;1659410;86;21046;-71
2021/08/16 08:52:34;;;;;;;10.13;5.87;;;;;;;31.12;36.87;99306.81;1683844;84;20990;-73
2021/08/16 08:55:01;;;;;;;13.50;5.53;;;;;;;31.16;37.07;99306.08;1660097;86;21163;-71
2021/08/16 08:57:31;;;;;;;9.83;5.22;;;;;;;31.18;36.30;99299.32;1684264;84;20864;-71
2021/08/16 08:59:56;;;;;;;23.87;6.15;;;;;;;31.24;37.88;99300.28;1660240;86;20954;-71
2021/08/16 09:02:22;;;;;;;10.03;5.60;;;;;;;31.44;37.84;99296.48;1684307;84;22186;-71
2021/08/16 09:04:54;;;;;;;9.35;5.58;;;;;;;31.68;37.11;99294.59;1659895;86;21589;-73
2021/08/16 09:07:38;;;;;;;10.90;6.53;;;;;;;31.96;35.36;99286.33;1682924;84;21863;-73
2021/08/16 09:10:14;;;;;;;10.08;6.58;;;;;;;32.07;37.12;99295.20;1682909;85;20923;-70
2021/08/16 09:12:44;;;;;;;11.93;6.12;;;;;;;32.18;36.15;99293.34;1683537;84;20970;-71
2021/08/16 09:15:29;;;;;;;11.68;5.42;;;;;;;32.20;35.12;99295.71;1659946;85;21524;-72
2021/08/16 09:17:52;;;;;;;10.80;5.65;;;;;;;32.11;34.87;99288.74;1682952;84;20989;-71
2021/08/16 09:20:26;;;;;;;12.88;5.58;;;;;;;32.08;35.94;99289.69;1660614;85;21139;-70
2021/08/16 09:23:01;;;;;;;10.03;5.53;;;;;;;32.14;35.53;99289.86;1683720;84;20983;-71
2021/08/16 09:25:35;;;;;;;12.40;5.95;;;;;;;32.14;35.34;99291.27;1683249;84;20967;-72
2021/08/16 09:28:02;;;;;;;14.20;6.03;;;;;;;32.23;34.76;99289.12;1660056;86;21023;-72
2021/08/16 09:30:41;;;;;;;11.08;5.28;;;;;;;32.39;34.77;99286.77;1683886;84;20985;-72
2021/08/16 09:33:20;;;;;;;11.40;5.25;;;;;;;32.46;34.17;99285.67;1660248;86;21053;-72
2021/08/16 09:35:59;;;;;;;9.95;5.30;;;;;;;32.38;34.37;99288.02;1683891;84;21058;-74
2021/08/16 09:38:42;;;;;;;10.28;5.50;;;;;;;32.37;34.16;99270.03;1669054;85;20913;-70
2021/08/16 09:41:24;;;;;;;15.45;5.50;;;;;;;32.43;34.92;99273.83;1660665;86;21147;-72
2021/08/16 09:43:53;;;;;;;12.30;5.87;;;;;;;32.34;34.68;99268.16;1676514;85;21500;-72
2021/08/16 09:46:21;;;;;;;6.28;4.78;;;;;;;32.17;34.53;99273.30;1655096;84;21162;-73
2021/08/16 09:49:02;;;;;;;9.18;4.95;;;;;;;32.16;35.34;99263.20;1659624;86;21569;-74
2021/08/16 09:51:35;;;;;;;12.53;5.70;;;;;;;32.38;35.88;99261.67;1679629;83;21589;-75
2021/08/16 09:54:03;;;;;;;15.60;5.72;;;;;;;32.68;34.75;99257.91;1680574;84;21004;-70
2021/08/16 09:56:30;;;;;;;17.70;6.05;;;;;;;32.77;34.63;99260.79;1682990;85;20961;-75
2021/08/16 09:58:57;;;;;;;11.90;5.25;;;;;;;32.85;33.98;99260.47;1683356;85;21517;-71
2021/08/16 10:01:25;;;;;;;8.20;5.12;;;;;;;32.93;33.00;99254.63;1683039;84;20895;-70
2021/08/16 10:03:52;;;;;;;11.05;4.85;;;;;;;32.91;34.63;99243.73;1683505;85;20983;-70
2021/08/16 10:06:21;;;;;;;13.68;5.37;;;;;;;32.98;33.65;99249.69;1680173;85;21051;-70
2021/08/16 10:08:52;;;;;;;9.68;5.05;;;;;;;33.00;32.67;99246.53;1678568;84;20965;-71
2021/08/16 10:11:20;;;;;;;12.75;5.53;;;;;;;32.93;32.86;99246.86;1652818;86;21487;-75
2021/08/16 10:13:52;;;;;;;13.15;4.80;;;;;;;32.97;33.11;99255.22;1670136;85;20959;-73
2021/08/16 10:16:33;;;;;;;14.55;5.42;;;;;;;32.92;32.22;99247.36;1685871;84;21034;-70
2021/08/16 10:19:04;;;;;;;15.65;5.47;;;;;;;32.73;34.07;99250.18;1683432;85;20961;-71
2021/08/16 10:21:32;;;;;;;6.35;4.12;;;;;;;32.75;32.80;99251.95;1659064;86;21027;-71
2021/08/16 10:23:59;;;;;;;7.67;4.50;;;;;;;32.60;32.31;99249.55;1656827;85;21135;-75
2021/08/16 10:26:32;;;;;;;6.90;4.65;;;;;;;32.44;32.85;99242.74;1682869;85;20970;-73
2021/08/16 10:29:02;;;;;;;7.97;4.70;;;;;;;32.43;33.85;99244.80;1683318;84;21064;-72
2021/08/16 10:31:33;;;;;;;13.48;4.62;;;;;;;32.39;33.21;99244.79;1683944;85;20903;-71
2021/08/16 10:34:00;;;;;;;11.63;5.25;;;;;;;32.35;34.56;99233.58;1655866;86;20947;-71
2021/08/16 10:36:27;;;;;;;8.58;4.47;;;;;;;32.40;34.33;99238.63;1683161;85;21151;-69
2021/08/16 10:38:57;;;;;;;9.48;5.12;;;;;;;32.54;32.82;99237.86;1665292;86;20899;-71
2021/08/16 10:41:26;;;;;;;8.05;4.78;;;;;;;32.69;34.40;99229.66;1664420;86;21006;-70
2021/08/16 10:43:53;;;;;;;11.05;4.62;;;;;;;32.88;32.57;99232.52;1664702;86;21517;-70
2021/08/16 10:46:22;;;;;;;6.80;4.78;;;;;;;32.94;31.50;99234.22;1658514;85;20963;-70
2021/08/16 10:49:03;;;;;;;8.83;4.33;;;;;;;32.96;31.84;99230.27;1670113;84;21789;-70
2021/08/16 10:51:45;;;;;;;8.23;4.67;;;;;;;33.09;32.44;99237.20;1680675;85;21004;-68
2021/08/16 10:54:26;;;;;;;10.23;4.40;;;;;;;33.27;31.33;99238.59;1681352;85;21412;-69
2021/08/16 10:56:54;;;;;;;11.00;5.28;;;;;;;33.22;30.71;99236.38;1667266;86;20947;-70
2021/08/16 10:59:23;;;;;;;7.83;4.50;;;;;;;33.20;31.61;99234.66;1681252;85;21478;-70
2021/08/16 11:01:51;;;;;;;7.55;4.15;;;;;;;33.26;31.66;99231.32;1681071;84;21852;-71
2021/08/16 11:04:34;;;;;;;12.75;5.15;;;;;;;33.37;31.38;99232.27;1658047;86;21450;-70
2021/08/16 11:07:07;;;;;;;7.40;4.53;;;;;;;33.40;31.50;99223.56;1680954;85;20891;-71
2021/08/16 11:09:37;;;;;;;9.38;4.83;;;;;;;33.32;30.32;99222.33;1681273;85;21472;-71
2021/08/16 11:12:11;;;;;;;11.33;4.75;;;;;;;33.32;32.01;99215.22;1668567;86;20931;-72
2021/08/16 11:14:42;;;;;;;7.75;4.95;;;;;;;33.41;31.01;99222.30;1681210;85;20974;-71
2021/08/16 11:17:12;;;;;;;10.40;4.70;;;;;;;33.49;30.81;99220.53;1681211;85;38313;-70
2021/08/16 11:19:44;;;;;;;9.85;5.20;;;;;;;33.59;30.86;99212.09;1668291;86;21061;-76
2021/08/16 11:22:12;;;;;;;9.40;5.12;;;;;;;33.53;30.58;99209.73;1680489;84;21061;-71
2021/08/16 11:24:41;;;;;;;10.20;5.00;;;;;;;33.51;30.92;99214.48;1651971;86;21403;-73
2021/08/16 11:27:17;;;;;;;15.13;4.80;;;;;;;33.51;30.59;99213.06;1674284;85;21812;-72
2021/08/16 11:29:43;;;;;;;11.68;4.90;;;;;;;33.45;30.65;99201.58;1680451;84;20950;-71
2021/08/16 11:32:11;;;;;;;14.07;4.47;;;;;;;33.42;30.99;99203.95;1656735;86;21034;-69